createdAt,value
2018-08-19T00:02:18.147Z,18.30
2018-08-19T00:05:02.862Z,18.30
2018-08-19T00:07:32.082Z,18.30
2018-08-19T00:10:01.202Z,18.20
2018-08-19T00:12:44.993Z,18.10
2018-08-19T00:15:14.738Z,18.10
2018-08-19T00:17:44.074Z,18.10
2018-08-19T00:20:14.262Z,18.10
2018-08-19T00:22:43.534Z,18.10
2018-08-19T00:25:22.735Z,18.00
2018-08-19T00:27:51.849Z,18.00
2018-08-19T00:30:20.914Z,17.90
2018-08-19T00:32:50.141Z,17.80
2018-08-19T00:35:19.250Z,17.80
2018-08-19T00:37:48.358Z,17.80
2018-08-19T00:40:17.489Z,17.80
2018-08-19T00:42:46.659Z,17.70
2018-08-19T00:45:16.943Z,17.70
2018-08-19T00:47:46.478Z,17.60
2018-08-19T00:50:15.648Z,17.70
2018-08-19T00:52:44.797Z,17.70
2018-08-19T00:55:13.938Z,17.70
2018-08-19T00:57:45.855Z,17.70
2018-08-19T01:00:14.974Z,17.70
2018-08-19T01:02:44.177Z,17.70
2018-08-19T01:05:13.428Z,17.70
2018-08-19T01:07:42.817Z,17.70
2018-08-19T01:10:12.073Z,17.70
2018-08-19T01:12:41.425Z,17.60
2018-08-19T01:15:12.890Z,17.60
2018-08-19T01:17:43.085Z,17.60
2018-08-19T01:20:16.341Z,17.50
2018-08-19T01:22:45.667Z,17.60
2018-08-19T01:25:15.522Z,17.50
2018-08-19T01:27:44.723Z,17.60
2018-08-19T01:30:19.373Z,17.60
2018-08-19T01:32:48.564Z,17.60
2018-08-19T01:35:18.074Z,17.50
2018-08-19T01:37:47.261Z,17.50
2018-08-19T01:40:18.582Z,17.50
2018-08-19T01:42:48.238Z,17.40
2018-08-19T01:45:17.353Z,17.40
2018-08-19T01:47:46.465Z,17.40
2018-08-19T01:50:17.006Z,17.40
2018-08-19T01:52:49.031Z,17.30
2018-08-19T01:55:18.792Z,17.30
2018-08-19T01:57:49.168Z,17.30
2018-08-19T02:00:18.781Z,17.40
2018-08-19T02:02:56.677Z,17.30
2018-08-19T02:05:26.248Z,17.30
2018-08-19T02:08:01.557Z,17.30
2018-08-19T02:10:32.086Z,17.30
2018-08-19T02:13:01.702Z,17.30
2018-08-19T02:15:31.967Z,17.30
2018-08-19T02:18:05.121Z,17.30
2018-08-19T02:20:40.388Z,17.30
2018-08-19T02:23:13.628Z,17.30
2018-08-19T02:25:45.465Z,17.30
2018-08-19T02:28:16.566Z,17.30
2018-08-19T02:30:52.055Z,17.20
2018-08-19T02:33:22.340Z,17.20
2018-08-19T02:36:04.852Z,17.20
2018-08-19T02:38:34.177Z,17.20
2018-08-19T02:41:03.464Z,17.10
2018-08-19T02:43:32.551Z,17.00
2018-08-19T02:46:01.686Z,16.90
2018-08-19T02:48:42.971Z,16.90
2018-08-19T02:51:13.754Z,16.90
2018-08-19T02:53:44.250Z,16.90
2018-08-19T02:56:14.017Z,16.90
2018-08-19T02:58:44.074Z,17.00
2018-08-19T03:01:14.303Z,17.00
2018-08-19T03:03:43.493Z,17.00
2018-08-19T03:06:12.778Z,17.00
2018-08-19T03:08:47.469Z,17.00
2018-08-19T03:11:21.245Z,16.90
2018-08-19T03:13:50.458Z,16.80
2018-08-19T03:16:19.582Z,16.70
2018-08-19T03:18:50.321Z,16.70
2018-08-19T03:21:20.286Z,16.60
2018-08-19T03:23:50.568Z,16.60
2018-08-19T03:26:19.779Z,16.60
2018-08-19T03:28:48.948Z,16.60
2018-08-19T03:31:18.024Z,16.60
2018-08-19T03:33:47.188Z,16.60
2018-08-19T03:36:16.335Z,16.60
2018-08-19T03:38:45.463Z,16.60
2018-08-19T03:41:14.561Z,16.50
2018-08-19T03:43:47.937Z,16.50
2018-08-19T03:46:20.363Z,16.40
2018-08-19T03:48:49.675Z,16.40
2018-08-19T03:51:18.802Z,16.30
2018-08-19T03:53:47.973Z,16.20
2018-08-19T03:56:22.390Z,16.20
2018-08-19T03:58:53.003Z,16.10
2018-08-19T04:01:33.502Z,16.10
2018-08-19T04:04:02.875Z,16.00
2018-08-19T04:06:31.962Z,16.00
2018-08-19T04:09:01.076Z,16.00
2018-08-19T04:11:30.466Z,16.00
2018-08-19T04:13:59.630Z,16.00
2018-08-19T04:16:28.773Z,16.10
2018-08-19T04:19:06.255Z,16.00
2018-08-19T04:21:35.359Z,16.00
2018-08-19T04:24:04.429Z,16.00
2018-08-19T04:26:33.704Z,15.90
2018-08-19T04:29:05.243Z,15.80
2018-08-19T04:31:34.708Z,15.80
2018-08-19T04:34:03.799Z,15.70
2018-08-19T04:36:32.811Z,15.60
2018-08-19T04:39:01.953Z,15.70
2018-08-19T04:41:31.103Z,15.80
2018-08-19T04:44:00.202Z,15.70
2018-08-19T04:46:29.593Z,15.60
2018-08-19T04:48:58.642Z,15.70
2018-08-19T04:51:27.698Z,15.60
2018-08-19T04:53:56.806Z,15.60
2018-08-19T04:56:25.991Z,15.80
2018-08-19T04:58:55.164Z,15.80
2018-08-19T05:01:24.262Z,15.80
2018-08-19T05:03:53.453Z,15.90
2018-08-19T05:06:22.549Z,16.00
2018-08-19T05:08:51.645Z,16.10
2018-08-19T05:11:20.832Z,16.10
2018-08-19T05:13:49.888Z,16.20
2018-08-19T05:16:18.980Z,16.20
2018-08-19T05:18:53.451Z,16.20
2018-08-19T05:21:25.992Z,16.30
2018-08-19T05:23:55.082Z,16.50
2018-08-19T05:26:24.437Z,16.50
2018-08-19T05:29:05.385Z,16.60
2018-08-19T05:31:39.232Z,16.70
2018-08-19T05:34:16.712Z,16.80
2018-08-19T05:36:48.730Z,16.90
2018-08-19T05:39:18.278Z,17.00
2018-08-19T05:42:02.305Z,17.10
2018-08-19T05:44:33.709Z,17.10
2018-08-19T05:47:04.594Z,17.30
2018-08-19T05:49:35.257Z,17.30
2018-08-19T05:52:06.603Z,17.30
2018-08-19T05:54:39.978Z,17.40
2018-08-19T05:57:09.460Z,17.40
2018-08-19T05:59:38.683Z,17.40
2018-08-19T06:02:07.971Z,17.50
2018-08-19T06:04:37.281Z,17.60
2018-08-19T06:07:06.894Z,17.70
2018-08-19T06:09:36.365Z,17.80
2018-08-19T06:12:05.522Z,18.00
2018-08-19T06:14:34.595Z,18.20
2018-08-19T06:17:04.994Z,18.90
2018-08-19T06:19:34.567Z,20.60
2018-08-19T06:22:03.802Z,21.80
2018-08-19T06:24:32.970Z,23.50
2018-08-19T06:27:02.110Z,24.30
2018-08-19T06:29:43.423Z,24.10
2018-08-19T06:32:20.548Z,23.40
2018-08-19T06:34:50.879Z,22.80
2018-08-19T06:37:21.089Z,22.30
2018-08-19T06:39:51.349Z,22.70
2018-08-19T06:42:21.137Z,23.80
2018-08-19T06:44:50.349Z,25.30
2018-08-19T06:47:19.506Z,26.80
2018-08-19T06:49:52.666Z,27.50
2018-08-19T06:52:22.489Z,28.10
2018-08-19T06:54:51.584Z,28.20
2018-08-19T06:57:20.821Z,28.70
2018-08-19T06:59:50.061Z,28.90
2018-08-19T07:02:22.116Z,29.40
2018-08-19T07:04:51.293Z,29.70
2018-08-19T07:07:20.951Z,29.50
2018-08-19T07:09:50.095Z,29.40
2018-08-19T07:12:21.380Z,29.80
2018-08-19T07:14:50.745Z,29.90
2018-08-19T07:17:20.260Z,30.40
2018-08-19T07:19:49.622Z,30.70
2018-08-19T07:22:20.081Z,31.50
2018-08-19T07:24:49.215Z,31.40
2018-08-19T07:27:18.304Z,31.50
2018-08-19T07:29:47.446Z,31.70
2018-08-19T07:32:16.689Z,31.80
2018-08-19T07:34:45.827Z,32.40
2018-08-19T07:37:14.961Z,32.20
2018-08-19T07:39:49.319Z,32.90
2018-08-19T07:42:18.422Z,33.30
2018-08-19T07:44:47.480Z,32.20
2018-08-19T07:47:16.590Z,32.10
2018-08-19T07:49:45.682Z,32.40
2018-08-19T07:52:14.852Z,32.80
2018-08-19T07:54:43.933Z,33.70
2018-08-19T07:57:21.772Z,33.70
2018-08-19T07:59:50.824Z,33.60
2018-08-19T08:02:19.997Z,34.00
2018-08-19T08:04:49.077Z,33.80
2018-08-19T08:07:18.226Z,33.40
2018-08-19T08:09:47.369Z,32.50
2018-08-19T08:12:16.658Z,32.90
2018-08-19T08:14:51.091Z,33.70
2018-08-19T08:17:20.775Z,34.60
2018-08-19T08:19:55.258Z,35.10
2018-08-19T08:22:27.262Z,35.00
2018-08-19T08:24:57.149Z,34.90
2018-08-19T08:27:26.342Z,34.70
2018-08-19T08:29:55.634Z,34.70
2018-08-19T08:32:24.867Z,34.20
2018-08-19T08:34:54.014Z,34.70
2018-08-19T08:37:23.181Z,34.50
2018-08-19T08:40:00.707Z,34.30
2018-08-19T08:42:43.536Z,34.30
2018-08-19T08:45:16.923Z,35.10
2018-08-19T08:47:46.595Z,36.10
2018-08-19T08:50:15.575Z,36.30
2018-08-19T08:52:45.195Z,36.70
2018-08-19T08:55:14.465Z,36.30
2018-08-19T08:57:43.612Z,36.30
2018-08-19T09:00:14.006Z,36.50
2018-08-19T09:02:43.211Z,36.80
2018-08-19T09:05:12.817Z,37.60
2018-08-19T09:07:42.013Z,37.30
2018-08-19T09:10:13.190Z,37.20
2018-08-19T09:12:48.542Z,37.20
2018-08-19T09:15:17.697Z,36.80
2018-08-19T09:17:46.927Z,37.60
2018-08-19T09:20:16.088Z,37.30
2018-08-19T09:22:46.045Z,38.10
2018-08-19T09:25:15.157Z,37.90
2018-08-19T09:27:44.483Z,37.60
2018-08-19T09:30:21.932Z,37.50
2018-08-19T09:32:58.355Z,37.70
2018-08-19T09:35:29.609Z,37.50
2018-08-19T09:38:03.139Z,37.70
2018-08-19T09:40:33.080Z,37.60
2018-08-19T09:43:02.407Z,37.40
2018-08-19T09:45:31.859Z,37.80
2018-08-19T09:48:01.709Z,37.80
2018-08-19T09:50:31.337Z,37.10
2018-08-19T09:53:00.447Z,37.60
2018-08-19T09:55:35.031Z,37.70
2018-08-19T09:58:04.202Z,38.30
2018-08-19T10:00:38.909Z,37.80
2018-08-19T10:03:08.040Z,37.30
2018-08-19T10:05:37.244Z,36.90
2018-08-19T10:08:06.502Z,37.20
2018-08-19T10:10:36.697Z,37.70
2018-08-19T10:13:06.526Z,37.40
2018-08-19T10:15:36.388Z,36.30
2018-08-19T10:18:07.699Z,36.90
2018-08-19T10:20:36.909Z,37.30
2018-08-19T10:23:06.458Z,37.90
2018-08-19T10:25:36.428Z,38.50
2018-08-19T10:28:05.876Z,37.90
2018-08-19T10:30:34.989Z,38.70
2018-08-19T10:33:10.288Z,39.40
2018-08-19T10:35:39.633Z,38.90
2018-08-19T10:38:08.818Z,38.20
2018-08-19T10:40:37.855Z,38.50
2018-08-19T10:43:08.464Z,38.70
2018-08-19T10:45:39.037Z,37.70
2018-08-19T10:48:11.487Z,36.50
2018-08-19T10:50:40.664Z,36.80
2018-08-19T10:53:16.124Z,37.00
2018-08-19T10:55:46.367Z,37.70
2018-08-19T10:58:15.560Z,37.70
2018-08-19T11:00:44.593Z,37.50
2018-08-19T11:03:19.149Z,36.90
2018-08-19T11:05:49.843Z,36.50
2018-08-19T11:08:18.936Z,35.80
2018-08-19T11:10:48.090Z,35.70
2018-08-19T11:13:19.425Z,36.40
2018-08-19T11:15:51.006Z,36.50
2018-08-19T11:18:37.860Z,36.00
2018-08-19T11:21:09.199Z,35.90
2018-08-19T11:23:39.996Z,35.50
2018-08-19T11:26:10.030Z,33.80
2018-08-19T11:28:42.439Z,32.30
2018-08-19T11:31:19.787Z,30.90
2018-08-19T11:33:49.254Z,29.90
2018-08-19T11:36:18.385Z,29.40
2018-08-19T11:38:49.528Z,29.70
2018-08-19T11:41:18.737Z,29.90
2018-08-19T11:43:48.922Z,29.80
2018-08-19T11:46:17.985Z,29.90
2018-08-19T11:48:54.825Z,29.40
2018-08-19T11:51:38.097Z,29.30
2018-08-19T11:54:07.281Z,29.40
2018-08-19T11:56:36.254Z,29.90
2018-08-19T11:59:05.337Z,30.20
2018-08-19T12:01:34.426Z,30.40
2018-08-19T12:04:12.208Z,30.10
2018-08-19T12:06:41.315Z,29.90
2018-08-19T12:09:10.988Z,29.70
2018-08-19T12:11:41.939Z,29.80
2018-08-19T12:14:13.014Z,29.50
2018-08-19T12:16:48.330Z,29.30
2018-08-19T12:19:35.101Z,29.60
2018-08-19T12:22:05.261Z,29.90
2018-08-19T12:24:40.313Z,30.10
2018-08-19T12:27:18.312Z,30.00
2018-08-19T12:29:47.741Z,29.80
2018-08-19T12:32:26.672Z,29.70
2018-08-19T12:34:57.137Z,29.90
2018-08-19T12:37:27.350Z,30.00
2018-08-19T12:39:56.973Z,30.10
2018-08-19T12:42:26.459Z,30.20
2018-08-19T12:45:01.325Z,30.30
2018-08-19T12:47:30.348Z,30.20
2018-08-19T12:50:00.673Z,30.00
2018-08-19T12:52:30.982Z,29.80
2018-08-19T12:55:06.201Z,29.60
2018-08-19T12:57:36.194Z,29.40
2018-08-19T13:00:22.093Z,29.50
2018-08-19T13:02:52.134Z,29.70
2018-08-19T13:05:21.697Z,29.90
2018-08-19T13:07:51.333Z,30.20
2018-08-19T13:10:20.761Z,30.10
2018-08-19T13:12:54.238Z,30.20
2018-08-19T13:15:24.506Z,30.40
2018-08-19T13:17:53.576Z,30.30
2018-08-19T13:20:22.562Z,30.00
2018-08-19T13:22:57.046Z,30.20
2018-08-19T13:25:26.138Z,30.30
2018-08-19T13:27:55.199Z,30.20
2018-08-19T13:30:24.232Z,30.20
2018-08-19T13:32:53.509Z,30.30
2018-08-19T13:35:22.538Z,30.00
2018-08-19T13:37:51.854Z,29.90
2018-08-19T13:40:20.927Z,29.90
2018-08-19T13:42:49.952Z,30.10
2018-08-19T13:45:20.452Z,30.10
2018-08-19T13:47:51.934Z,30.10
2018-08-19T13:50:21.011Z,30.10
2018-08-19T13:52:50.060Z,30.10
2018-08-19T13:55:20.218Z,30.20
2018-08-19T13:57:49.321Z,30.10
2018-08-19T14:00:23.108Z,29.80
2018-08-19T14:02:52.300Z,29.70
2018-08-19T14:05:21.320Z,29.70
2018-08-19T14:07:50.679Z,29.50
2018-08-19T14:10:19.717Z,29.10
2018-08-19T14:12:48.766Z,29.10
2018-08-19T14:15:17.829Z,29.20
2018-08-19T14:17:46.852Z,29.30
2018-08-19T14:20:15.904Z,29.40
2018-08-19T14:22:44.940Z,29.30
2018-08-19T14:25:14.093Z,29.20
2018-08-19T14:27:43.150Z,29.10
2018-08-19T14:30:13.141Z,29.10
2018-08-19T14:32:43.491Z,29.20
2018-08-19T14:35:12.608Z,29.20
2018-08-19T14:37:42.042Z,29.10
2018-08-19T14:40:16.761Z,29.20
2018-08-19T14:42:45.993Z,29.20
2018-08-19T14:45:15.217Z,29.10
2018-08-19T14:47:44.308Z,29.10
2018-08-19T14:50:15.485Z,29.00
2018-08-19T14:52:44.985Z,29.10
2018-08-19T14:55:14.008Z,29.30
2018-08-19T14:57:43.288Z,29.00
2018-08-19T15:00:14.027Z,28.80
2018-08-19T15:02:43.206Z,28.80
2018-08-19T15:05:14.453Z,29.00
2018-08-19T15:07:43.599Z,29.10
2018-08-19T15:10:16.762Z,29.00
2018-08-19T15:12:45.765Z,29.00
2018-08-19T15:15:14.874Z,28.80
2018-08-19T15:17:49.318Z,29.00
2018-08-19T15:20:22.581Z,29.00
2018-08-19T15:22:52.068Z,29.10
2018-08-19T15:25:21.088Z,29.00
2018-08-19T15:27:53.216Z,28.80
2018-08-19T15:30:27.646Z,28.60
2018-08-19T15:32:57.029Z,28.60
2018-08-19T15:35:25.737Z,28.60
2018-08-19T15:37:54.792Z,28.70
2018-08-19T15:40:36.683Z,28.70
2018-08-19T15:43:05.789Z,28.70
2018-08-19T15:45:34.890Z,28.80
2018-08-19T15:48:04.774Z,28.70
2018-08-19T15:50:33.816Z,28.70
2018-08-19T15:53:03.998Z,28.70
2018-08-19T15:55:33.006Z,28.60
2018-08-19T15:58:03.345Z,28.60
2018-08-19T16:00:40.588Z,28.70
2018-08-19T16:03:10.978Z,28.80
2018-08-19T16:05:40.148Z,28.80
2018-08-19T16:08:09.285Z,28.60
2018-08-19T16:10:38.344Z,28.50
2018-08-19T16:13:09.997Z,28.50
2018-08-19T16:15:39.115Z,28.50
2018-08-19T16:18:08.628Z,28.50
2018-08-19T16:20:37.834Z,28.50
2018-08-19T16:23:06.848Z,28.50
2018-08-19T16:25:35.949Z,28.50
2018-08-19T16:28:05.328Z,28.30
2018-08-19T16:30:34.421Z,28.10
2018-08-19T16:33:03.522Z,28.00
2018-08-19T16:35:32.597Z,28.00
2018-08-19T16:38:01.609Z,28.00
2018-08-19T16:40:30.680Z,28.00
2018-08-19T16:42:59.738Z,27.90
2018-08-19T16:45:28.826Z,27.80
2018-08-19T16:47:57.882Z,27.80
2018-08-19T16:50:26.975Z,27.70
2018-08-19T16:52:55.980Z,27.60
2018-08-19T16:55:25.071Z,27.60
2018-08-19T16:57:54.129Z,27.50
2018-08-19T17:00:23.185Z,27.50
2018-08-19T17:02:52.325Z,27.50
2018-08-19T17:05:36.354Z,27.50
2018-08-19T17:08:05.790Z,27.40
2018-08-19T17:10:34.838Z,27.30
2018-08-19T17:13:03.903Z,27.40
2018-08-19T17:15:32.957Z,27.30
2018-08-19T17:18:02.003Z,27.20
2018-08-19T17:20:31.030Z,27.10
2018-08-19T17:23:00.097Z,27.10
2018-08-19T17:25:29.228Z,27.10
2018-08-19T17:28:04.317Z,27.00
2018-08-19T17:30:33.721Z,26.90
2018-08-19T17:33:10.987Z,26.80
2018-08-19T17:35:42.762Z,26.70
2018-08-19T17:38:12.217Z,26.60
2018-08-19T17:40:41.207Z,26.60
2018-08-19T17:43:10.227Z,26.50
2018-08-19T17:45:39.501Z,26.40
2018-08-19T17:48:08.461Z,26.30
2018-08-19T17:50:39.013Z,26.30
2018-08-19T17:53:08.271Z,26.20
2018-08-19T17:55:37.343Z,26.20
2018-08-19T17:58:06.548Z,26.10
2018-08-19T18:00:35.608Z,26.00
2018-08-19T18:03:04.656Z,26.00
2018-08-19T18:05:33.802Z,25.90
2018-08-19T18:08:02.744Z,25.90
2018-08-19T18:10:32.704Z,25.80
2018-08-19T18:13:01.673Z,25.70
2018-08-19T18:15:30.701Z,25.60
2018-08-19T18:18:05.976Z,25.60
2018-08-19T18:20:36.799Z,25.60
2018-08-19T18:23:12.833Z,25.50
2018-08-19T18:25:42.485Z,25.40
2018-08-19T18:28:16.581Z,25.40
2018-08-19T18:30:48.270Z,25.20
2018-08-19T18:33:17.266Z,25.20
2018-08-19T18:35:46.589Z,25.10
2018-08-19T18:38:30.611Z,25.00
2018-08-19T18:40:59.797Z,25.00
2018-08-19T18:43:28.802Z,24.90
2018-08-19T18:45:58.026Z,24.80
2018-08-19T18:48:26.958Z,24.80
2018-08-19T18:50:56.685Z,24.70
2018-08-19T18:53:27.697Z,24.60
2018-08-19T18:55:56.720Z,24.50
2018-08-19T18:58:25.844Z,24.50
2018-08-19T19:01:00.393Z,24.40
2018-08-19T19:03:29.475Z,24.40
2018-08-19T19:05:58.466Z,24.30
2018-08-19T19:08:27.449Z,24.30
2018-08-19T19:11:01.968Z,24.20
2018-08-19T19:13:31.023Z,24.20
2018-08-19T19:16:00.092Z,24.10
2018-08-19T19:18:29.243Z,24.10
2018-08-19T19:21:00.382Z,24.00
2018-08-19T19:23:33.968Z,24.00
2018-08-19T19:26:04.378Z,24.00
2018-08-19T19:28:33.592Z,23.90
2018-08-19T19:31:08.142Z,23.80
2018-08-19T19:33:37.431Z,23.70
2018-08-19T19:36:11.661Z,23.70
2018-08-19T19:38:59.017Z,23.70
2018-08-19T19:41:31.040Z,23.60
2018-08-19T19:44:33.360Z,23.60
2018-08-19T19:47:02.539Z,23.60
2018-08-19T19:49:31.663Z,23.60
2018-08-19T19:52:03.749Z,23.50
2018-08-19T19:54:33.930Z,23.50
2018-08-19T19:57:02.935Z,23.50
2018-08-19T19:59:33.812Z,23.50
2018-08-19T20:02:02.933Z,23.50
2018-08-19T20:04:34.922Z,23.40
2018-08-19T20:07:03.987Z,23.40
2018-08-19T20:09:35.333Z,23.40
2018-08-19T20:12:08.183Z,23.30
2018-08-19T20:14:41.853Z,23.30
2018-08-19T20:17:10.892Z,23.30
2018-08-19T20:19:39.948Z,23.30
2018-08-19T20:22:13.419Z,23.30
2018-08-19T20:24:42.595Z,23.30
2018-08-19T20:27:11.690Z,23.30
2018-08-19T20:29:40.789Z,23.30
2018-08-19T20:32:09.838Z,23.30
2018-08-19T20:34:38.859Z,23.30
2018-08-19T20:37:07.961Z,23.30
2018-08-19T20:39:37.020Z,23.20
2018-08-19T20:42:06.627Z,23.20
2018-08-19T20:44:37.572Z,23.20
2018-08-19T20:47:07.765Z,23.10
2018-08-19T20:49:36.812Z,23.10
2018-08-19T20:52:06.422Z,23.00
2018-08-19T20:54:35.500Z,22.90
2018-08-19T20:57:04.562Z,22.90
2018-08-19T20:59:36.289Z,22.80
2018-08-19T21:02:07.008Z,22.70
2018-08-19T21:04:36.095Z,22.70
2018-08-19T21:07:05.921Z,22.70
2018-08-19T21:09:35.933Z,22.60
2018-08-19T21:12:05.025Z,22.60
2018-08-19T21:14:34.109Z,22.60
2018-08-19T21:17:04.000Z,22.60
2018-08-19T21:19:34.172Z,22.50
2018-08-19T21:22:03.284Z,22.50
2018-08-19T21:24:32.364Z,22.50
2018-08-19T21:27:02.969Z,22.50
2018-08-19T21:29:32.579Z,22.50
2018-08-19T21:32:01.585Z,22.50
2018-08-19T21:34:30.912Z,22.40
2018-08-19T21:37:00.650Z,22.40
2018-08-19T21:39:30.286Z,22.30
2018-08-19T21:41:59.388Z,22.30
2018-08-19T21:44:28.376Z,22.30
2018-08-19T21:46:57.436Z,22.30
2018-08-19T21:49:26.440Z,22.20
2018-08-19T21:51:55.574Z,22.20
2018-08-19T21:54:24.551Z,22.20
2018-08-19T21:56:53.616Z,22.20
2018-08-19T21:59:24.611Z,22.10
2018-08-19T22:01:57.729Z,22.10
2018-08-19T22:04:27.054Z,22.00
2018-08-19T22:06:56.085Z,22.00
2018-08-19T22:09:30.909Z,21.90
2018-08-19T22:12:00.692Z,21.90
2018-08-19T22:14:30.445Z,21.80
2018-08-19T22:17:05.010Z,21.80
2018-08-19T22:19:34.064Z,21.80
2018-08-19T22:22:03.078Z,21.80
2018-08-19T22:24:32.196Z,21.80
2018-08-19T22:27:06.599Z,21.70
2018-08-19T22:29:35.891Z,21.70
2018-08-19T22:32:04.935Z,21.60
2018-08-19T22:34:33.982Z,21.60
2018-08-19T22:37:03.077Z,21.50
2018-08-19T22:39:32.169Z,21.50
2018-08-19T22:42:01.311Z,21.50
2018-08-19T22:44:30.313Z,21.50
2018-08-19T22:46:59.392Z,21.40
2018-08-19T22:49:28.940Z,21.40
2018-08-19T22:52:12.017Z,21.40
2018-08-19T22:54:41.024Z,21.30
2018-08-19T22:57:10.069Z,21.30
2018-08-19T22:59:39.091Z,21.30
2018-08-19T23:02:08.177Z,21.30
2018-08-19T23:04:37.192Z,21.30
2018-08-19T23:07:06.223Z,21.20
2018-08-19T23:09:35.296Z,21.30
2018-08-19T23:12:04.412Z,21.30
2018-08-19T23:26:11.208Z,21.10
2018-08-19T23:28:40.298Z,21.10
2018-08-19T23:31:09.407Z,21.10
2018-08-19T23:33:38.515Z,21.00
2018-08-19T23:36:07.619Z,21.00
2018-08-19T23:38:36.645Z,21.00
2018-08-19T23:41:05.896Z,21.00
2018-08-19T23:43:34.936Z,21.00
2018-08-19T23:46:03.982Z,21.00
2018-08-19T23:48:33.030Z,20.90
2018-08-19T23:51:02.029Z,20.90
2018-08-19T23:53:31.054Z,20.80
2018-08-19T23:56:00.112Z,20.70
2018-08-19T23:58:29.130Z,20.70
